sensor_id;sensor_type;location;lat;lon;timestamp;pressure;altitude;pressure_sealevel;temperature;humidity
25855;BME280;13680;49.936;11.344;2022-09-21T00:01:23;97533.41;;;6.39;76.28
25855;BME280;13680;49.936;11.344;2022-09-21T00:03:53;97539.81;;;6.38;76.31
25855;BME280;13680;49.936;11.344;2022-09-21T00:06:20;97535.97;;;6.29;76.03
25855;BME280;13680;49.936;11.344;2022-09-21T00:08:46;97533.78;;;6.26;76.15
25855;BME280;13680;49.936;11.344;2022-09-21T00:11:14;97543.94;;;6.24;76.19
25855;BME280;13680;49.936;11.344;2022-09-21T00:13:39;97531.91;;;6.21;76.14
25855;BME280;13680;49.936;11.344;2022-09-21T00:16:07;97537.47;;;6.20;76.63
25855;BME280;13680;49.936;11.344;2022-09-21T00:18:33;97532.13;;;6.20;76.60
25855;BME280;13680;49.936;11.344;2022-09-21T00:21:00;97531.84;;;6.16;75.69
25855;BME280;13680;49.936;11.344;2022-09-21T00:23:25;97528.09;;;6.17;76.17
25855;BME280;13680;49.936;11.344;2022-09-21T00:25:50;97530.97;;;6.11;75.98
25855;BME280;13680;49.936;11.344;2022-09-21T00:28:16;97537.34;;;6.10;76.31
25855;BME280;13680;49.936;11.344;2022-09-21T00:30:41;97537.34;;;6.10;76.61
25855;BME280;13680;49.936;11.344;2022-09-21T00:33:06;97529.59;;;6.08;76.15
25855;BME280;13680;49.936;11.344;2022-09-21T00:35:32;97536.69;;;5.97;76.92
25855;BME280;13680;49.936;11.344;2022-09-21T00:38:02;97533.78;;;5.99;76.71
25855;BME280;13680;49.936;11.344;2022-09-21T00:40:28;97541.44;;;5.95;76.77
25855;BME280;13680;49.936;11.344;2022-09-21T00:43:10;97543.63;;;5.98;77.10
25855;BME280;13680;49.936;11.344;2022-09-21T00:45:35;97540.88;;;5.93;77.20
25855;BME280;13680;49.936;11.344;2022-09-21T00:48:01;97549.72;;;5.94;77.20
25855;BME280;13680;49.936;11.344;2022-09-21T00:50:26;97556.91;;;5.93;77.23
25855;BME280;13680;49.936;11.344;2022-09-21T00:52:54;97550.50;;;5.94;76.82
25855;BME280;13680;49.936;11.344;2022-09-21T00:55:26;97548.91;;;5.93;76.68
25855;BME280;13680;49.936;11.344;2022-09-21T00:57:58;97555.78;;;5.89;76.92
25855;BME280;13680;49.936;11.344;2022-09-21T01:00:25;97549.91;;;5.87;76.79
25855;BME280;13680;49.936;11.344;2022-09-21T01:02:51;97548.34;;;5.91;76.75
25855;BME280;13680;49.936;11.344;2022-09-21T01:05:17;97546.44;;;5.86;77.18
25855;BME280;13680;49.936;11.344;2022-09-21T01:07:45;97548.91;;;5.93;76.98
25855;BME280;13680;49.936;11.344;2022-09-21T01:10:14;97555.78;;;5.89;77.06
25855;BME280;13680;49.936;11.344;2022-09-21T01:12:54;97548.34;;;5.91;76.87
25855;BME280;13680;49.936;11.344;2022-09-21T01:15:38;97550.78;;;5.93;77.01
25855;BME280;13680;49.936;11.344;2022-09-21T01:18:28;97556.06;;;5.87;76.71
25855;BME280;13680;49.936;11.344;2022-09-21T01:23:34;97552.00;;;5.85;77.05
25855;BME280;13680;49.936;11.344;2022-09-21T01:29:25;97539.25;;;5.87;77.26
25855;BME280;13680;49.936;11.344;2022-09-21T01:32:09;97553.94;;;5.89;77.44
25855;BME280;13680;49.936;11.344;2022-09-21T01:37:40;97549.66;;;5.88;77.77
25855;BME280;13680;49.936;11.344;2022-09-21T01:40:12;97547.31;;;5.92;77.84
25855;BME280;13680;49.936;11.344;2022-09-21T01:42:40;97547.06;;;5.94;78.50
25855;BME280;13680;49.936;11.344;2022-09-21T01:45:10;97556.91;;;5.93;78.67
25855;BME280;13680;49.936;11.344;2022-09-21T01:47:38;97546.88;;;5.78;79.51
25855;BME280;13680;49.936;11.344;2022-09-21T01:50:07;97539.78;;;5.89;79.32
25855;BME280;13680;49.936;11.344;2022-09-21T01:52:57;97550.19;;;5.90;78.49
25855;BME280;13680;49.936;11.344;2022-09-21T01:55:48;97555.25;;;5.87;78.12
25855;BME280;13680;49.936;11.344;2022-09-21T01:58:28;97548.28;;;5.86;78.15
25855;BME280;13680;49.936;11.344;2022-09-21T02:00:56;97546.38;;;5.81;78.11
25855;BME280;13680;49.936;11.344;2022-09-21T02:03:29;97546.88;;;5.78;78.08
25855;BME280;13680;49.936;11.344;2022-09-21T02:05:59;97551.06;;;5.74;78.34
25855;BME280;13680;49.936;11.344;2022-09-21T02:08:25;97551.25;;;5.67;78.47
25855;BME280;13680;49.936;11.344;2022-09-21T02:10:53;97555.81;;;5.67;78.32
25855;BME280;13680;49.936;11.344;2022-09-21T02:13:22;97553.44;;;5.70;78.26
25855;BME280;13680;49.936;11.344;2022-09-21T02:18:42;97554.69;;;5.63;78.38
25855;BME280;13680;49.936;11.344;2022-09-21T02:21:27;97556.28;;;5.64;78.47
25855;BME280;13680;49.936;11.344;2022-09-21T02:24:09;97557.09;;;5.64;77.75
25855;BME280;13680;49.936;11.344;2022-09-21T02:26:55;97549.63;;;5.66;77.35
25855;BME280;13680;49.936;11.344;2022-09-21T02:29:41;97553.31;;;5.60;77.61
25855;BME280;13680;49.936;11.344;2022-09-21T02:32:24;97558.88;;;5.58;77.53
25855;BME280;13680;49.936;11.344;2022-09-21T02:35:00;97552.81;;;5.41;77.78
25855;BME280;13680;49.936;11.344;2022-09-21T02:37:39;97556.53;;;5.40;77.92
25855;BME280;13680;49.936;11.344;2022-09-21T02:40:20;97554.72;;;5.46;78.19
25855;BME280;13680;49.936;11.344;2022-09-21T02:42:51;97559.56;;;5.49;78.08
25855;BME280;13680;49.936;11.344;2022-09-21T02:45:24;97562.25;;;5.49;77.98
25855;BME280;13680;49.936;11.344;2022-09-21T02:48:02;97560.13;;;5.51;77.55
25855;BME280;13680;49.936;11.344;2022-09-21T02:50:38;97561.16;;;5.50;77.56
25855;BME280;13680;49.936;11.344;2022-09-21T02:53:06;97563.84;;;5.50;77.89
25855;BME280;13680;49.936;11.344;2022-09-21T02:55:34;97569.94;;;5.45;77.34
25855;BME280;13680;49.936;11.344;2022-09-21T02:58:03;97565.38;;;5.46;77.36
25855;BME280;13680;49.936;11.344;2022-09-21T03:00:30;97555.69;;;5.39;77.55
25855;BME280;13680;49.936;11.344;2022-09-21T03:02:55;97552.56;;;5.43;77.82
25855;BME280;13680;49.936;11.344;2022-09-21T03:05:21;97557.31;;;5.40;77.64
25855;BME280;13680;49.936;11.344;2022-09-21T03:07:46;97556.84;;;5.44;77.59
25855;BME280;13680;49.936;11.344;2022-09-21T03:10:12;97556.84;;;5.44;77.63
25855;BME280;13680;49.936;11.344;2022-09-21T03:12:37;97559.25;;;5.45;77.92
25855;BME280;13680;49.936;11.344;2022-09-21T03:15:03;97554.41;;;5.42;78.12
25855;BME280;13680;49.936;11.344;2022-09-21T03:17:29;97554.56;;;5.35;78.72
25855;BME280;13680;49.936;11.344;2022-09-21T03:19:55;97558.44;;;5.45;78.44
25855;BME280;13680;49.936;11.344;2022-09-21T03:22:21;97565.06;;;5.42;78.18
25855;BME280;13680;49.936;11.344;2022-09-21T03:24:47;97572.28;;;5.41;78.09
25855;BME280;13680;49.936;11.344;2022-09-21T03:27:14;97564.53;;;5.40;78.76
25855;BME280;13680;49.936;11.344;2022-09-21T03:29:40;97567.00;;;5.47;79.09
25855;BME280;13680;49.936;11.344;2022-09-21T03:32:05;97574.50;;;5.50;79.30
25855;BME280;13680;49.936;11.344;2022-09-21T03:34:31;97575.09;;;5.52;79.53
25855;BME280;13680;49.936;11.344;2022-09-21T03:36:58;97578.63;;;5.57;79.55
25855;BME280;13680;49.936;11.344;2022-09-21T03:39:24;97582.44;;;5.45;79.80
25855;BME280;13680;49.936;11.344;2022-09-21T03:41:49;97583.66;;;5.37;79.79
25855;BME280;13680;49.936;11.344;2022-09-21T03:44:15;97582.63;;;5.38;79.64
25855;BME280;13680;49.936;11.344;2022-09-21T03:46:42;97587.22;;;5.43;80.01
25855;BME280;13680;49.936;11.344;2022-09-21T03:49:07;97579.34;;;5.31;80.10
25855;BME280;13680;49.936;11.344;2022-09-21T03:51:33;97586.13;;;5.38;80.12
25855;BME280;13680;49.936;11.344;2022-09-21T03:53:58;97589.97;;;5.48;79.72
25855;BME280;13680;49.936;11.344;2022-09-21T03:56:23;97587.84;;;5.50;79.82
25855;BME280;13680;49.936;11.344;2022-09-21T03:58:49;97591.59;;;5.49;79.88
25855;BME280;13680;49.936;11.344;2022-09-21T04:01:14;97585.09;;;5.45;79.27
25855;BME280;13680;49.936;11.344;2022-09-21T04:03:39;97591.25;;;5.45;79.64
25855;BME280;13680;49.936;11.344;2022-09-21T04:06:09;97595.97;;;5.38;79.50
25855;BME280;13680;49.936;11.344;2022-09-21T04:08:34;97590.88;;;5.36;79.16
25855;BME280;13680;49.936;11.344;2022-09-21T04:11:00;97592.25;;;5.39;78.94
25855;BME280;13680;49.936;11.344;2022-09-21T04:13:26;97595.78;;;5.45;78.90
25855;BME280;13680;49.936;11.344;2022-09-21T04:15:51;97601.63;;;5.41;78.46
25855;BME280;13680;49.936;11.344;2022-09-21T04:18:17;97595.81;;;5.28;79.44
25855;BME280;13680;49.936;11.344;2022-09-21T04:20:42;97601.38;;;5.43;78.92
25855;BME280;13680;49.936;11.344;2022-09-21T04:23:08;97600.50;;;5.37;79.42
25855;BME280;13680;49.936;11.344;2022-09-21T04:25:34;97603.34;;;5.31;79.37
25855;BME280;13680;49.936;11.344;2022-09-21T04:28:00;97593.88;;;5.40;78.89
25855;BME280;13680;49.936;11.344;2022-09-21T04:30:25;97608.25;;;5.39;78.93
25855;BME280;13680;49.936;11.344;2022-09-21T04:32:50;97604.53;;;5.40;78.72
25855;BME280;13680;49.936;11.344;2022-09-21T04:35:16;97612.22;;;5.36;79.14
25855;BME280;13680;49.936;11.344;2022-09-21T04:37:41;97612.72;;;5.33;79.08
25855;BME280;13680;49.936;11.344;2022-09-21T04:40:07;97610.03;;;5.16;79.37
25855;BME280;13680;49.936;11.344;2022-09-21T04:42:33;97614.41;;;5.22;79.22
25855;BME280;13680;49.936;11.344;2022-09-21T04:44:58;97612.63;;;5.28;79.08
25855;BME280;13680;49.936;11.344;2022-09-21T04:47:23;97608.03;;;5.23;79.49
25855;BME280;13680;49.936;11.344;2022-09-21T04:49:49;97615.19;;;5.23;79.22
25855;BME280;13680;49.936;11.344;2022-09-21T04:52:16;97621.44;;;5.12;79.09
25855;BME280;13680;49.936;11.344;2022-09-21T04:54:41;97621.19;;;5.13;78.42
25855;BME280;13680;49.936;11.344;2022-09-21T04:57:07;97623.53;;;5.10;78.16
25855;BME280;13680;49.936;11.344;2022-09-21T04:59:32;97625.69;;;5.13;78.04
25855;BME280;13680;49.936;11.344;2022-09-21T05:01:57;97625.41;;;5.09;78.62
25855;BME280;13680;49.936;11.344;2022-09-21T05:04:22;97625.69;;;5.13;78.53
25855;BME280;13680;49.936;11.344;2022-09-21T05:06:48;97627.00;;;5.10;79.35
25855;BME280;13680;49.936;11.344;2022-09-21T05:09:13;97628.63;;;5.11;79.87
25855;BME280;13680;49.936;11.344;2022-09-21T05:11:57;97639.19;;;5.23;79.50
25855;BME280;13680;49.936;11.344;2022-09-21T05:14:23;97636.53;;;5.23;79.62
25855;BME280;13680;49.936;11.344;2022-09-21T05:16:48;97641.47;;;5.31;79.53
25855;BME280;13680;49.936;11.344;2022-09-21T05:19:14;97641.31;;;5.21;79.56
25855;BME280;13680;49.936;11.344;2022-09-21T05:21:40;97645.53;;;5.17;79.79
25855;BME280;13680;49.936;11.344;2022-09-21T05:24:05;97642.34;;;5.20;79.59
25855;BME280;13680;49.936;11.344;2022-09-21T05:26:30;97642.34;;;5.20;79.72
25855;BME280;13680;49.936;11.344;2022-09-21T05:28:56;97638.31;;;5.34;79.16
25855;BME280;13680;49.936;11.344;2022-09-21T05:31:38;97645.50;;;5.34;79.04
25855;BME280;13680;49.936;11.344;2022-09-21T05:37:50;97649.66;;;5.24;79.32
25855;BME280;13680;49.936;11.344;2022-09-21T05:39:49;97653.59;;;5.39;79.20
25855;BME280;13680;49.936;11.344;2022-09-21T05:42:15;97655.13;;;5.35;79.01
25855;BME280;13680;49.936;11.344;2022-09-21T05:44:40;97661.09;;;5.25;78.85
25855;BME280;13680;49.936;11.344;2022-09-21T05:47:34;97656.75;;;5.36;78.86
25855;BME280;13680;49.936;11.344;2022-09-21T05:55:59;97656.41;;;5.49;79.48
25855;BME280;13680;49.936;11.344;2022-09-21T05:58:32;97654.47;;;5.62;79.33
25855;BME280;13680;49.936;11.344;2022-09-21T06:03:30;97663.63;;;5.88;78.61
25855;BME280;13680;49.936;11.344;2022-09-21T06:05:56;97661.88;;;5.77;78.51
25855;BME280;13680;49.936;11.344;2022-09-21T06:08:22;97660.19;;;5.70;78.64
25855;BME280;13680;49.936;11.344;2022-09-21T06:10:48;97658.28;;;5.88;78.30
25855;BME280;13680;49.936;11.344;2022-09-21T06:13:14;97663.63;;;5.88;79.01
25855;BME280;13680;49.936;11.344;2022-09-21T06:15:39;97660.88;;;5.83;79.12
25855;BME280;13680;49.936;11.344;2022-09-21T06:18:05;97667.19;;;5.94;78.89
25855;BME280;13680;49.936;11.344;2022-09-21T06:20:31;97666.63;;;6.09;78.95
25855;BME280;13680;49.936;11.344;2022-09-21T06:23:03;97667.78;;;6.18;78.46
25855;BME280;13680;49.936;11.344;2022-09-21T06:25:29;97667.91;;;6.28;77.67
25855;BME280;13680;49.936;11.344;2022-09-21T06:27:56;97668.41;;;6.25;77.42
25855;BME280;13680;49.936;11.344;2022-09-21T06:30:25;97682.88;;;6.29;77.53
25855;BME280;13680;49.936;11.344;2022-09-21T06:32:50;97674.16;;;6.39;77.41
25855;BME280;13680;49.936;11.344;2022-09-21T06:35:16;97675.94;;;6.28;77.24
25855;BME280;13680;49.936;11.344;2022-09-21T06:37:41;97679.88;;;6.48;77.41
25855;BME280;13680;49.936;11.344;2022-09-21T06:40:07;97677.09;;;6.60;77.18
25855;BME280;13680;49.936;11.344;2022-09-21T06:42:32;97672.91;;;6.47;76.73
25855;BME280;13680;49.936;11.344;2022-09-21T06:44:58;97682.78;;;6.68;76.70
25855;BME280;13680;49.936;11.344;2022-09-21T06:47:23;97684.56;;;6.85;75.82
25855;BME280;13680;49.936;11.344;2022-09-21T06:49:48;97680.19;;;7.01;75.05
25855;BME280;13680;49.936;11.344;2022-09-21T06:52:13;97684.00;;;7.10;75.04
25855;BME280;13680;49.936;11.344;2022-09-21T06:54:39;97688.50;;;7.04;75.26
25855;BME280;13680;49.936;11.344;2022-09-21T06:57:06;97692.38;;;7.19;75.23
25855;BME280;13680;49.936;11.344;2022-09-21T06:59:32;97686.13;;;7.41;74.95
25855;BME280;13680;49.936;11.344;2022-09-21T07:01:57;97691.38;;;7.25;75.04
25855;BME280;13680;49.936;11.344;2022-09-21T07:04:23;97680.06;;;7.50;75.32
25855;BME280;13680;49.936;11.344;2022-09-21T07:06:53;97687.38;;;7.65;75.20
25855;BME280;13680;49.936;11.344;2022-09-21T07:09:19;97684.91;;;7.96;74.25
25855;BME280;13680;49.936;11.344;2022-09-21T07:11:45;97683.97;;;8.23;74.29
25855;BME280;13680;49.936;11.344;2022-09-21T07:14:10;97683.28;;;8.43;73.65
25855;BME280;13680;49.936;11.344;2022-09-21T07:16:36;97678.75;;;8.49;73.64
25855;BME280;13680;49.936;11.344;2022-09-21T07:19:01;97680.41;;;8.60;73.28
25855;BME280;13680;49.936;11.344;2022-09-21T07:21:28;97685.78;;;8.71;73.20
25855;BME280;13680;49.936;11.344;2022-09-21T07:23:53;97682.88;;;8.82;73.09
25855;BME280;13680;49.936;11.344;2022-09-21T07:26:19;97678.88;;;8.95;73.31
25855;BME280;13680;49.936;11.344;2022-09-21T07:28:46;97680.78;;;9.10;73.69
25855;BME280;13680;49.936;11.344;2022-09-21T07:31:14;97678.91;;;9.26;72.98
25855;BME280;13680;49.936;11.344;2022-09-21T07:33:40;97680.78;;;9.52;72.96
25855;BME280;13680;49.936;11.344;2022-09-21T07:36:06;97682.94;;;9.60;73.22
25855;BME280;13680;49.936;11.344;2022-09-21T07:38:36;97689.91;;;9.71;72.73
25855;BME280;13680;49.936;11.344;2022-09-21T07:41:02;97677.81;;;9.84;72.71
25855;BME280;13680;49.936;11.344;2022-09-21T07:43:27;97679.63;;;10.09;72.73
25855;BME280;13680;49.936;11.344;2022-09-21T07:45:53;97686.94;;;9.83;73.99
25855;BME280;13680;49.936;11.344;2022-09-21T07:48:22;97676.97;;;9.99;73.41
25855;BME280;13680;49.936;11.344;2022-09-21T07:50:48;97680.34;;;10.30;73.57
25855;BME280;13680;49.936;11.344;2022-09-21T07:53:14;97672.75;;;10.53;73.30
25855;BME280;13680;49.936;11.344;2022-09-21T07:55:41;97668.81;;;10.85;73.43
25855;BME280;13680;49.936;11.344;2022-09-21T07:58:06;97674.78;;;10.82;74.48
25855;BME280;13680;49.936;11.344;2022-09-21T08:00:50;97667.09;;;11.05;73.84
25855;BME280;13680;49.936;11.344;2022-09-21T08:03:16;97672.34;;;11.25;73.74
25855;BME280;13680;49.936;11.344;2022-09-21T08:05:41;97666.78;;;11.46;74.19
25855;BME280;13680;49.936;11.344;2022-09-21T08:08:06;97666.69;;;11.56;72.94
25855;BME280;13680;49.936;11.344;2022-09-21T08:10:33;97659.97;;;11.83;72.87
25855;BME280;13680;49.936;11.344;2022-09-21T08:12:59;97659.94;;;11.88;72.78
25855;BME280;13680;49.936;11.344;2022-09-21T08:15:25;97661.88;;;12.12;72.33
25855;BME280;13680;49.936;11.344;2022-09-21T08:17:54;97669.25;;;12.25;73.47
25855;BME280;13680;49.936;11.344;2022-09-21T08:20:21;97660.47;;;12.39;72.08
25855;BME280;13680;49.936;11.344;2022-09-21T08:22:46;97661.38;;;12.72;70.63
25855;BME280;13680;49.936;11.344;2022-09-21T08:25:12;97663.50;;;12.94;71.12
25855;BME280;13680;49.936;11.344;2022-09-21T08:27:37;97655.97;;;13.30;69.83
25855;BME280;13680;49.936;11.344;2022-09-21T08:30:05;97658.69;;;13.63;68.60
25855;BME280;13680;49.936;11.344;2022-09-21T08:32:32;97662.84;;;13.74;68.74
25855;BME280;13680;49.936;11.344;2022-09-21T08:34:57;97665.63;;;13.83;69.58
25855;BME280;13680;49.936;11.344;2022-09-21T08:37:22;97672.19;;;13.96;67.88
25855;BME280;13680;49.936;11.344;2022-09-21T08:39:48;97677.41;;;14.06;68.23
25855;BME280;13680;49.936;11.344;2022-09-21T08:42:38;97673.09;;;14.33;66.34
25855;BME280;13680;49.936;11.344;2022-09-21T08:45:17;97674.97;;;14.46;67.10
25855;BME280;13680;49.936;11.344;2022-09-21T08:47:45;97685.88;;;14.83;66.20
25855;BME280;13680;49.936;11.344;2022-09-21T08:50:29;97674.13;;;14.87;64.79
25855;BME280;13680;49.936;11.344;2022-09-21T08:53:00;97674.09;;;15.01;63.96
25855;BME280;13680;49.936;11.344;2022-09-21T08:55:27;97686.75;;;15.29;62.81
25855;BME280;13680;49.936;11.344;2022-09-21T08:57:53;97672.66;;;15.41;62.47
25855;BME280;13680;49.936;11.344;2022-09-21T09:00:19;97678.19;;;15.58;61.45
25855;BME280;13680;49.936;11.344;2022-09-21T09:02:53;97677.81;;;15.74;62.71
25855;BME280;13680;49.936;11.344;2022-09-21T09:08:41;97674.22;;;16.18;62.75
25855;BME280;13680;49.936;11.344;2022-09-21T09:21:54;97666.22;;;16.80;57.00
25855;BME280;13680;49.936;11.344;2022-09-21T09:24:28;97658.25;;;17.27;55.13
25855;BME280;13680;49.936;11.344;2022-09-21T09:27:08;97656.69;;;17.17;54.79
25855;BME280;13680;49.936;11.344;2022-09-21T09:32:17;97652.66;;;17.50;53.21
25855;BME280;13680;49.936;11.344;2022-09-21T09:34:56;97652.31;;;17.60;54.97
25855;BME280;13680;49.936;11.344;2022-09-21T09:37:28;97662.56;;;18.20;52.56
25855;BME280;13680;49.936;11.344;2022-09-21T09:39:55;97651.03;;;18.53;49.54
25855;BME280;13680;49.936;11.344;2022-09-21T09:45:32;97647.03;;;19.01;48.16
25855;BME280;13680;49.936;11.344;2022-09-21T09:48:25;97645.00;;;18.68;48.63
25855;BME280;13680;49.936;11.344;2022-09-21T09:50:53;97645.16;;;18.93;48.46
25855;BME280;13680;49.936;11.344;2022-09-21T09:53:21;97650.06;;;19.42;46.27
25855;BME280;13680;49.936;11.344;2022-09-21T09:55:53;97646.78;;;19.49;44.08
25855;BME280;13680;49.936;11.344;2022-09-21T09:58:22;97651.19;;;19.20;43.14
25855;BME280;13680;49.936;11.344;2022-09-21T10:00:52;97643.69;;;19.84;41.87
25855;BME280;13680;49.936;11.344;2022-09-21T10:03:20;97645.66;;;19.50;43.02
25855;BME280;13680;49.936;11.344;2022-09-21T10:05:46;97644.47;;;19.38;45.40
25855;BME280;13680;49.936;11.344;2022-09-21T10:11:02;97636.47;;;18.48;49.71
25855;BME280;13680;49.936;11.344;2022-09-21T10:13:30;97643.88;;;18.09;49.82
25855;BME280;13680;49.936;11.344;2022-09-21T10:18:43;97636.22;;;17.29;51.51
25855;BME280;13680;49.936;11.344;2022-09-21T10:21:32;97639.72;;;17.12;51.47
25855;BME280;13680;49.936;11.344;2022-09-21T10:24:04;97639.91;;;17.07;51.46
25855;BME280;13680;49.936;11.344;2022-09-21T10:26:52;97635.59;;;16.97;51.70
25855;BME280;13680;49.936;11.344;2022-09-21T10:37:46;97629.56;;;16.33;50.83
25855;BME280;13680;49.936;11.344;2022-09-21T10:42:53;97632.63;;;16.58;53.77
25855;BME280;13680;49.936;11.344;2022-09-21T10:45:20;97621.00;;;17.45;51.52
25855;BME280;13680;49.936;11.344;2022-09-21T10:47:49;97619.53;;;18.13;46.89
25855;BME280;13680;49.936;11.344;2022-09-21T10:55:37;97623.72;;;18.83;41.01
25855;BME280;13680;49.936;11.344;2022-09-21T10:58:08;97625.44;;;19.63;36.49
25855;BME280;13680;49.936;11.344;2022-09-21T11:00:41;97625.34;;;18.84;36.51
25855;BME280;13680;49.936;11.344;2022-09-21T11:03:41;97623.47;;;19.97;35.80
25855;BME280;13680;49.936;11.344;2022-09-21T11:06:21;97619.97;;;20.34;37.18
25855;BME280;13680;49.936;11.344;2022-09-21T11:08:56;97619.72;;;20.26;33.63
25855;BME280;13680;49.936;11.344;2022-09-21T11:14:12;97609.91;;;20.75;30.92
25855;BME280;13680;49.936;11.344;2022-09-21T11:16:48;97608.81;;;21.49;33.28
25855;BME280;13680;49.936;11.344;2022-09-21T11:19:19;97612.31;;;21.62;31.76
25855;BME280;13680;49.936;11.344;2022-09-21T11:22:09;97612.97;;;21.42;32.95
25855;BME280;13680;49.936;11.344;2022-09-21T11:24:47;97609.94;;;21.60;32.48
25855;BME280;13680;49.936;11.344;2022-09-21T11:27:23;97611.06;;;22.07;30.21
25855;BME280;13680;49.936;11.344;2022-09-21T11:30:08;97613.03;;;22.06;30.46
25855;BME280;13680;49.936;11.344;2022-09-21T11:32:44;97602.78;;;22.03;31.20
25855;BME280;13680;49.936;11.344;2022-09-21T11:41:06;97593.94;;;22.62;29.42
25855;BME280;13680;49.936;11.344;2022-09-21T11:43:55;97590.72;;;22.56;29.75
25855;BME280;13680;49.936;11.344;2022-09-21T11:46:28;97589.97;;;22.39;29.43
25855;BME280;13680;49.936;11.344;2022-09-21T11:54:31;97580.94;;;22.94;29.78
25855;BME280;13680;49.936;11.344;2022-09-21T11:57:15;97585.53;;;23.29;29.62
25855;BME280;13680;49.936;11.344;2022-09-21T12:02:36;97574.41;;;23.88;28.51
25855;BME280;13680;49.936;11.344;2022-09-21T12:05:22;97574.03;;;24.40;25.14
25855;BME280;13680;49.936;11.344;2022-09-21T12:10:43;97561.53;;;25.07;26.90
25855;BME280;13680;49.936;11.344;2022-09-21T12:19:18;97557.91;;;26.19;25.05
25855;BME280;13680;49.936;11.344;2022-09-21T12:21:54;97553.50;;;26.11;26.74
25855;BME280;13680;49.936;11.344;2022-09-21T12:24:23;97559.63;;;25.93;25.83
25855;BME280;13680;49.936;11.344;2022-09-21T12:26:54;97549.75;;;26.37;23.87
25855;BME280;13680;49.936;11.344;2022-09-21T12:29:41;97549.81;;;25.47;24.82
25855;BME280;13680;49.936;11.344;2022-09-21T12:32:20;97553.63;;;24.67;27.86
25855;BME280;13680;49.936;11.344;2022-09-21T12:35:01;97550.34;;;25.64;24.28
25855;BME280;13680;49.936;11.344;2022-09-21T12:37:45;97546.03;;;26.15;26.18
25855;BME280;13680;49.936;11.344;2022-09-21T12:40:21;97542.50;;;25.25;26.11
25855;BME280;13680;49.936;11.344;2022-09-21T12:42:59;97539.66;;;25.55;25.86
25855;BME280;13680;49.936;11.344;2022-09-21T12:45:37;97545.59;;;24.86;27.77
25855;BME280;13680;49.936;11.344;2022-09-21T12:48:25;97553.13;;;22.96;29.40
25855;BME280;13680;49.936;11.344;2022-09-21T12:50:55;97547.81;;;23.46;28.43
25855;BME280;13680;49.936;11.344;2022-09-21T12:53:24;97547.63;;;23.58;29.85
25855;BME280;13680;49.936;11.344;2022-09-21T13:06:48;97550.44;;;21.13;33.25
25855;BME280;13680;49.936;11.344;2022-09-21T13:09:18;97555.47;;;20.04;35.39
25855;BME280;13680;49.936;11.344;2022-09-21T13:12:07;97553.41;;;20.14;36.10
25855;BME280;13680;49.936;11.344;2022-09-21T13:14:41;97546.94;;;20.06;36.04
25855;BME280;13680;49.936;11.344;2022-09-21T13:17:20;97555.81;;;19.90;36.54
25855;BME280;13680;49.936;11.344;2022-09-21T13:19:57;97545.44;;;20.21;35.30
25855;BME280;13680;49.936;11.344;2022-09-21T13:22:25;97547.75;;;21.16;34.11
25855;BME280;13680;49.936;11.344;2022-09-21T13:30:40;97539.22;;;23.70;31.00
25855;BME280;13680;49.936;11.344;2022-09-21T13:41:01;97532.47;;;25.09;29.25
25855;BME280;13680;49.936;11.344;2022-09-21T13:44:00;97519.69;;;26.21;27.12
25855;BME280;13680;49.936;11.344;2022-09-21T13:49:20;97513.81;;;26.19;26.34
25855;BME280;13680;49.936;11.344;2022-09-21T13:57:36;97529.59;;;21.24;34.75
25855;BME280;13680;49.936;11.344;2022-09-21T14:02:57;97526.00;;;19.85;37.97
25855;BME280;13680;49.936;11.344;2022-09-21T14:05:28;97532.78;;;19.08;39.40
25855;BME280;13680;49.936;11.344;2022-09-21T14:10:24;97533.91;;;19.41;39.28
25855;BME280;13680;49.936;11.344;2022-09-21T14:12:50;97522.59;;;19.18;39.64
25855;BME280;13680;49.936;11.344;2022-09-21T14:17:43;97526.91;;;19.19;38.87
25855;BME280;13680;49.936;11.344;2022-09-21T14:20:29;97523.44;;;19.30;39.53
25855;BME280;13680;49.936;11.344;2022-09-21T14:25:50;97521.19;;;19.57;39.07
25855;BME280;13680;49.936;11.344;2022-09-21T14:28:19;97524.44;;;19.26;38.75
25855;BME280;13680;49.936;11.344;2022-09-21T14:30:54;97523.19;;;19.23;38.32
25855;BME280;13680;49.936;11.344;2022-09-21T14:33:24;97517.88;;;19.39;38.74
25855;BME280;13680;49.936;11.344;2022-09-21T14:35:51;97515.84;;;19.61;38.16
25855;BME280;13680;49.936;11.344;2022-09-21T14:38:27;97509.38;;;20.56;36.20
25855;BME280;13680;49.936;11.344;2022-09-21T14:40:58;97513.00;;;20.60;34.34
25855;BME280;13680;49.936;11.344;2022-09-21T14:43:30;97516.44;;;20.57;35.17
25855;BME280;13680;49.936;11.344;2022-09-21T14:48:49;97517.53;;;20.68;36.79
25855;BME280;13680;49.936;11.344;2022-09-21T14:51:29;97509.56;;;20.75;35.46
25855;BME280;13680;49.936;11.344;2022-09-21T14:56:58;97497.91;;;20.91;36.65
25855;BME280;13680;49.936;11.344;2022-09-21T14:59:41;97504.91;;;22.00;35.00
25855;BME280;13680;49.936;11.344;2022-09-21T15:02:21;97495.78;;;22.67;33.76
25855;BME280;13680;49.936;11.344;2022-09-21T15:10:55;97486.97;;;23.20;30.94
25855;BME280;13680;49.936;11.344;2022-09-21T15:16:03;97480.72;;;21.54;33.71
25855;BME280;13680;49.936;11.344;2022-09-21T15:18:32;97481.84;;;20.08;36.34
25855;BME280;13680;49.936;11.344;2022-09-21T15:21:02;97493.50;;;19.09;39.22
25855;BME280;13680;49.936;11.344;2022-09-21T15:23:37;97497.47;;;18.57;41.00
25855;BME280;13680;49.936;11.344;2022-09-21T15:26:07;97495.78;;;18.53;41.04
25855;BME280;13680;49.936;11.344;2022-09-21T15:28:36;97494.25;;;18.43;40.69
25855;BME280;13680;49.936;11.344;2022-09-21T15:31:03;97495.44;;;18.33;41.82
25855;BME280;13680;49.936;11.344;2022-09-21T15:33:30;97487.28;;;18.12;43.18
25855;BME280;13680;49.936;11.344;2022-09-21T15:35:59;97484.41;;;18.08;44.16
25855;BME280;13680;49.936;11.344;2022-09-21T15:38:30;97485.56;;;17.69;43.66
25855;BME280;13680;49.936;11.344;2022-09-21T15:40:56;97479.66;;;17.66;43.68